Time,TemperatureF,DewpointF,PressureIn,WindDirection,WindDirectionDegrees,WindSpeedMPH,WindSpeedGustMPH,Humidity,HourlyPrecipIn,Conditions,Clouds,dailyrainin,SoftwareType,DateUTC
2013-07-11 00:10:00,62.1,57.0,30.05,North,360,0.0,0.0,84,0.00,,,0.00,weatherlink.com 1.10,2013-07-11 05:10:00,
2013-07-11 00:25:00,61.5,56.0,30.05,North,360,0.0,0.0,82,0.00,,,0.00,weatherlink.com 1.10,2013-07-11 05:25:00,
2013-07-11 00:40:00,61.1,57.0,30.05,North,360,0.0,0.0,85,0.00,,,0.00,weatherlink.com 1.10,2013-07-11 05:40:00,
2013-07-11 00:55:00,61.5,58.0,30.06,SSE,160,1.0,2.0,88,0.00,,,0.00,weatherlink.com 1.10,2013-07-11 05:55:00,
2013-07-11 01:10:00,62.1,58.0,30.06,SSE,159,0.0,0.0,85,0.00,,,0.00,weatherlink.com 1.10,2013-07-11 06:10:00,
2013-07-11 01:25:00,61.0,57.0,30.06,SSE,159,0.0,0.0,86,0.00,,,0.00,weatherlink.com 1.10,2013-07-11 06:25:00,
2013-07-11 01:40:00,60.6,57.0,30.07,SSE,159,0.0,1.0,89,0.00,,,0.00,weatherlink.com 1.10,2013-07-11 06:40:00,
2013-07-11 01:55:00,60.5,57.0,30.07,SSE,159,0.0,0.0,88,0.00,,,0.00,weatherlink.com 1.10,2013-07-11 06:55:00,
2013-07-11 02:10:00,59.9,56.0,30.07,SSE,159,0.0,0.0,87,0.00,,,0.00,weatherlink.com 1.10,2013-07-11 07:10:00,
2013-07-11 02:25:00,59.4,56.0,30.07,SSE,159,0.0,0.0,89,0.00,,,0.00,weatherlink.com 1.10,2013-07-11 07:25:00,
2013-07-11 02:40:00,59.3,57.0,30.07,SSE,159,0.0,0.0,91,0.00,,,0.00,weatherlink.com 1.10,2013-07-11 07:40:00,
2013-07-11 02:55:00,59.1,56.0,30.08,SSE,159,0.0,0.0,90,0.00,,,0.00,weatherlink.com 1.10,2013-07-11 07:55:00,
2013-07-11 03:10:00,58.7,56.0,30.07,SSE,159,0.0,0.0,89,0.00,,,0.00,weatherlink.com 1.10,2013-07-11 08:10:00,
2013-07-11 03:25:00,58.6,56.0,30.07,SSE,159,0.0,0.0,91,0.00,,,0.00,weatherlink.com 1.10,2013-07-11 08:25:00,
2013-07-11 03:40:00,59.5,57.0,30.07,SSE,159,0.0,0.0,91,0.00,,,0.00,weatherlink.com 1.10,2013-07-11 08:40:00,
2013-07-11 03:55:00,60.1,57.0,30.07,SSE,159,0.0,0.0,88,0.00,,,0.00,weatherlink.com 1.10,2013-07-11 08:55:00,
2013-07-11 04:10:00,59.8,57.0,30.07,SSE,159,0.0,0.0,89,0.00,,,0.00,weatherlink.com 1.10,2013-07-11 09:10:00,
2013-07-11 04:25:00,59.5,57.0,30.08,SSE,159,0.0,0.0,90,0.00,,,0.00,weatherlink.com 1.10,2013-07-11 09:25:00,
2013-07-11 04:40:00,59.8,57.0,30.09,SSE,159,0.0,0.0,90,0.00,,,0.00,weatherlink.com 1.10,2013-07-11 09:40:00,
2013-07-11 04:55:00,59.0,56.0,30.09,SSE,159,0.0,0.0,88,0.00,,,0.00,weatherlink.com 1.10,2013-07-11 09:55:00,
2013-07-11 05:10:00,58.2,55.0,30.09,SSE,159,0.0,0.0,89,0.00,,,0.00,weatherlink.com 1.10,2013-07-11 10:10:00,
2013-07-11 05:25:00,58.3,56.0,30.08,SSE,149,0.0,0.0,91,0.00,,,0.00,weatherlink.com 1.10,2013-07-11 10:25:00,
2013-07-11 05:40:00,58.4,56.0,30.09,SSE,149,0.0,0.0,92,0.00,,,0.00,weatherlink.com 1.10,2013-07-11 10:40:00,
2013-07-11 05:55:00,58.6,56.0,30.09,SSE,149,0.0,0.0,91,0.00,,,0.00,weatherlink.com 1.10,2013-07-11 10:55:00,
2013-07-11 06:10:00,58.6,56.0,30.10,SSE,149,0.0,0.0,91,0.00,,,0.00,weatherlink.com 1.10,2013-07-11 11:10:00,
2013-07-11 06:25:00,58.7,56.0,30.10,SSE,149,0.0,0.0,92,0.00,,,0.00,weatherlink.com 1.10,2013-07-11 11:25:00,
2013-07-11 06:40:00,60.0,57.0,30.10,SSE,149,0.0,0.0,91,0.00,,,0.00,weatherlink.com 1.10,2013-07-11 11:40:00,
2013-07-11 06:55:00,61.6,59.0,30.11,SSE,149,0.0,0.0,90,0.00,,,0.00,weatherlink.com 1.10,2013-07-11 11:55:00,
2013-07-11 07:10:00,63.9,60.0,30.11,SSE,149,0.0,0.0,86,0.00,,,0.00,weatherlink.com 1.10,2013-07-11 12:10:00,
2013-07-11 07:25:00,65.7,60.0,30.12,South,175,0.0,1.0,83,0.00,,,0.00,weatherlink.com 1.10,2013-07-11 12:25:00,
2013-07-11 07:41:00,68.3,62.0,30.12,SSE,157,1.0,2.0,80,0.00,,,0.00,weatherlink.com 1.10,2013-07-11 12:41:00,
2013-07-11 07:56:00,69.7,62.0,30.12,SE,142,0.0,2.0,77,0.00,,,0.00,weatherlink.com 1.10,2013-07-11 12:56:00,
2013-07-11 08:26:00,72.4,60.0,30.11,ESE,123,4.0,8.0,66,0.00,,,0.00,weatherlink.com 1.10,2013-07-11 13:26:00,
2013-07-11 08:41:00,73.1,61.0,30.11,ESE,115,3.0,8.0,65,0.00,,,0.00,weatherlink.com 1.10,2013-07-11 13:41:00,
2013-07-11 08:56:00,74.4,60.0,30.11,SE,129,3.0,7.0,62,0.00,,,0.00,weatherlink.com 1.10,2013-07-11 13:56:00,
2013-07-11 09:11:00,75.4,60.0,30.11,ESE,123,3.0,9.0,59,0.00,,,0.00,weatherlink.com 1.10,2013-07-11 14:11:00,
2013-07-11 09:26:00,76.3,60.0,30.11,SE,124,4.0,10.0,57,0.00,,,0.00,weatherlink.com 1.10,2013-07-11 14:26:00,
2013-07-11 09:56:00,78.0,59.0,30.11,ESE,105,4.0,11.0,52,0.00,,,0.00,weatherlink.com 1.10,2013-07-11 14:56:00,
2013-07-11 10:11:00,78.6,58.0,30.11,SE,140,3.0,9.0,49,0.00,,,0.00,weatherlink.com 1.10,2013-07-11 15:11:00,
2013-07-11 10:26:00,78.8,57.0,30.11,ESE,121,5.0,10.0,48,0.00,,,0.00,weatherlink.com 1.10,2013-07-11 15:26:00,
2013-07-11 10:41:00,79.5,57.0,30.10,ESE,107,4.0,10.0,47,0.00,,,0.00,weatherlink.com 1.10,2013-07-11 15:41:00,
2013-07-11 10:56:00,79.8,57.0,30.10,ESE,113,7.0,10.0,46,0.00,,,0.00,weatherlink.com 1.10,2013-07-11 15:56:00,
2013-07-11 11:11:00,80.1,59.0,30.11,East,101,6.0,9.0,48,0.00,,,0.00,weatherlink.com 1.10,2013-07-11 16:11:00,
2013-07-11 11:26:00,80.1,57.0,30.11,ESE,116,5.0,10.0,46,0.00,,,0.00,weatherlink.com 1.10,2013-07-11 16:26:00,
2013-07-11 11:41:00,80.3,58.0,30.10,SE,130,4.0,10.0,46,0.00,,,0.00,weatherlink.com 1.10,2013-07-11 16:41:00,
2013-07-11 11:56:00,80.9,58.0,30.10,East,86,3.0,10.0,45,0.00,,,0.00,weatherlink.com 1.10,2013-07-11 16:56:00,
2013-07-11 12:11:00,81.1,59.0,30.10,ESE,117,8.0,10.0,47,0.00,,,0.00,weatherlink.com 1.10,2013-07-11 17:11:00,
2013-07-11 12:56:00,82.5,59.0,30.09,SSE,159,3.0,12.0,45,0.00,,,0.00,weatherlink.com 1.10,2013-07-11 17:56:00,
2013-07-11 13:11:00,82.6,58.0,30.08,SSW,206,3.0,12.0,43,0.00,,,0.00,weatherlink.com 1.10,2013-07-11 18:11:00,
2013-07-11 13:26:00,82.9,57.0,30.08,ESE,113,10.0,12.0,41,0.00,,,0.00,weatherlink.com 1.10,2013-07-11 18:26:00,
2013-07-11 13:41:00,82.9,58.0,30.08,ESE,117,10.0,14.0,43,0.00,,,0.00,weatherlink.com 1.10,2013-07-11 18:41:00,
2013-07-11 14:11:00,83.9,58.0,30.07,ESE,115,5.0,11.0,42,0.00,,,0.00,weatherlink.com 1.10,2013-07-11 19:11:00,
2013-07-11 14:26:00,84.3,59.0,30.07,SE,136,6.0,10.0,43,0.00,,,0.00,weatherlink.com 1.10,2013-07-11 19:26:00,
2013-07-11 14:41:00,84.3,59.0,30.07,ESE,110,5.0,10.0,43,0.00,,,0.00,weatherlink.com 1.10,2013-07-11 19:41:00,
2013-07-11 15:12:00,84.4,59.0,30.07,East,97,7.0,11.0,42,0.00,,,0.00,weatherlink.com 1.10,2013-07-11 20:12:00,
2013-07-11 15:27:00,84.0,57.0,30.07,ESE,122,2.0,12.0,40,0.00,,,0.00,weatherlink.com 1.10,2013-07-11 20:27:00,
2013-07-11 15:42:00,84.0,58.0,30.06,ESE,107,5.0,10.0,41,0.00,,,0.00,weatherlink.com 1.10,2013-07-11 20:42:00,
2013-07-11 15:57:00,84.1,57.0,30.06,ESE,117,7.0,14.0,40,0.00,,,0.00,weatherlink.com 1.10,2013-07-11 20:57:00,
2013-07-11 16:12:00,84.3,58.0,30.05,SE,126,4.0,14.0,41,0.00,,,0.00,weatherlink.com 1.10,2013-07-11 21:12:00,
2013-07-11 16:27:00,84.6,56.0,30.05,ESE,110,8.0,9.0,38,0.00,,,0.00,weatherlink.com 1.10,2013-07-11 21:27:00,
2013-07-11 16:42:00,84.3,57.0,30.04,ESE,104,5.0,15.0,40,0.00,,,0.00,weatherlink.com 1.10,2013-07-11 21:42:00,
2013-07-11 16:57:00,84.4,58.0,30.04,SE,138,5.0,14.0,41,0.00,,,0.00,weatherlink.com 1.10,2013-07-11 21:57:00,
2013-07-11 17:27:00,84.3,58.0,30.04,ESE,117,4.0,11.0,41,0.00,,,0.00,weatherlink.com 1.10,2013-07-11 22:27:00,
2013-07-11 17:57:00,84.0,59.0,30.03,East,89,3.0,9.0,43,0.00,,,0.00,weatherlink.com 1.10,2013-07-11 22:57:00,
2013-07-11 18:27:00,83.6,60.0,30.02,ESE,107,7.0,9.0,45,0.00,,,0.00,weatherlink.com 1.10,2013-07-11 23:27:00,
2013-07-11 18:42:00,83.2,59.0,30.02,ESE,105,5.0,11.0,44,0.00,,,0.00,weatherlink.com 1.10,2013-07-11 23:42:00,
2013-07-11 18:57:00,82.5,60.0,30.02,ESE,103,8.0,10.0,46,0.00,,,0.00,weatherlink.com 1.10,2013-07-11 23:57:00,
2013-07-11 19:27:00,81.4,59.0,30.02,SE,143,7.0,10.0,47,0.00,,,0.00,weatherlink.com 1.10,2013-07-12 00:27:00,
2013-07-11 19:42:00,80.8,60.0,30.02,ESE,108,5.0,9.0,49,0.00,,,0.00,weatherlink.com 1.10,2013-07-12 00:42:00,
2013-07-11 19:57:00,80.0,60.0,30.01,ESE,122,2.0,9.0,51,0.00,,,0.00,weatherlink.com 1.10,2013-07-12 00:57:00,
2013-07-11 20:12:00,79.2,60.0,30.01,ESE,102,5.0,8.0,52,0.00,,,0.00,weatherlink.com 1.10,2013-07-12 01:12:00,
2013-07-11 20:27:00,78.1,60.0,30.01,ESE,115,4.0,5.0,54,0.00,,,0.00,weatherlink.com 1.10,2013-07-12 01:27:00,
2013-07-11 20:42:00,76.8,60.0,30.01,ESE,111,5.0,6.0,57,0.00,,,0.00,weatherlink.com 1.10,2013-07-12 01:42:00,
2013-07-11 20:57:00,75.7,59.0,30.00,ESE,108,5.0,5.0,57,0.00,,,0.00,weatherlink.com 1.10,2013-07-12 01:57:00,
2013-07-11 21:27:00,74.9,59.0,30.01,ESE,111,3.0,7.0,57,0.00,,,0.00,weatherlink.com 1.10,2013-07-12 02:27:00,
2013-07-11 21:42:00,74.4,59.0,30.01,ESE,110,5.0,8.0,58,0.00,,,0.00,weatherlink.com 1.10,2013-07-12 02:42:00,
2013-07-11 21:57:00,73.6,59.0,30.01,ESE,104,2.0,7.0,60,0.00,,,0.00,weatherlink.com 1.10,2013-07-12 02:57:00,
2013-07-11 22:12:00,73.0,59.0,30.02,ESE,117,4.0,4.0,61,0.00,,,0.00,weatherlink.com 1.10,2013-07-12 03:12:00,
2013-07-11 22:27:00,72.1,59.0,30.02,ESE,113,2.0,6.0,63,0.00,,,0.00,weatherlink.com 1.10,2013-07-12 03:27:00,
2013-07-11 22:42:00,71.3,59.0,30.02,ESE,107,0.0,5.0,65,0.00,,,0.00,weatherlink.com 1.10,2013-07-12 03:42:00,
2013-07-11 22:57:00,70.4,58.0,30.03,ESE,108,0.0,1.0,66,0.00,,,0.00,weatherlink.com 1.10,2013-07-12 03:57:00,
2013-07-11 23:12:00,69.6,59.0,30.03,ESE,108,0.0,0.0,68,0.00,,,0.00,weatherlink.com 1.10,2013-07-12 04:12:00,
2013-07-11 23:27:00,68.8,59.0,30.03,ESE,108,0.0,1.0,70,0.00,,,0.00,weatherlink.com 1.10,2013-07-12 04:27:00,
2013-07-11 23:42:00,69.3,59.0,30.04,SE,143,0.0,4.0,70,0.00,,,0.00,weatherlink.com 1.10,2013-07-12 04:42:00,
2013-07-11 23:57:00,69.2,59.0,30.04,SE,142,0.0,2.0,70,0.00,,,0.00,weatherlink.com 1.10,2013-07-12 04:57:00,